Time;durP1;ratioP1;P1;durP2;ratioP2;P2;SDS_P1;SDS_P2;PMS_P1;PMS_P2;Temp;Humidity;BMP_temperature;BMP_pressure;BME280_temperature;BME280_humidity;BME280_pressure;Samples;Min_cycle;Max_cycle;Signal;HPM_P1;HPM_P2
2023/08/18 00:00:52;;;;;;;11.10;5.90;;;;;;;21.15;91.58;101002.00;104365;1274;98386;-78
2023/08/18 00:03:38;;;;;;;7.60;5.90;;;;;;;21.11;92.02;100992.17;104411;1274;98596;-79
2023/08/18 00:06:24;;;;;;;8.50;5.60;;;;;;;21.04;92.20;100984.14;104398;1273;101351;-78
2023/08/18 00:09:10;;;;;;;7.10;5.90;;;;;;;21.01;92.81;100978.02;104415;1273;99102;-79
2023/08/18 00:11:55;;;;;;;8.80;6.60;;;;;;;20.94;93.23;100975.08;104369;1272;97985;-79
2023/08/18 00:14:41;;;;;;;11.70;6.30;;;;;;;20.88;93.78;100976.91;104388;1274;98066;-79
2023/08/18 00:17:27;;;;;;;10.30;7.30;;;;;;;20.82;94.27;100979.42;104360;1273;98022;-78
2023/08/18 00:20:13;;;;;;;7.80;6.20;;;;;;;20.79;94.91;100976.15;104305;1270;102774;-76
2023/08/18 00:22:58;;;;;;;17.20;6.80;;;;;;;20.78;95.26;100979.84;104916;1270;100172;-79
2023/08/18 00:25:44;;;;;;;8.50;6.30;;;;;;;20.78;95.45;100992.75;104730;1273;97918;-79
2023/08/18 00:28:29;;;;;;;9.00;6.50;;;;;;;20.77;95.65;101007.52;104649;1270;97985;-79
2023/08/18 00:31:15;;;;;;;8.10;6.80;;;;;;;20.77;95.92;101019.34;104761;1270;98614;-79
2023/08/18 00:34:00;;;;;;;9.40;6.90;;;;;;;20.81;96.23;101044.60;104726;1273;101383;-78
2023/08/18 00:36:47;;;;;;;12.30;7.00;;;;;;;20.87;96.73;101094.73;104662;1271;99561;-78
2023/08/18 00:39:32;;;;;;;6.70;6.00;;;;;;;20.86;96.29;101123.12;104808;1282;97984;-78
2023/08/18 00:42:18;;;;;;;6.50;5.80;;;;;;;20.87;96.26;101129.00;104753;1274;98727;-78
2023/08/18 00:45:04;;;;;;;7.90;5.70;;;;;;;20.92;95.93;101114.52;104743;1273;98093;-79
2023/08/18 00:47:51;;;;;;;4.80;2.70;;;;;;;21.01;93.67;101109.27;104784;1273;102478;-78
2023/08/18 00:50:36;;;;;;;5.10;3.00;;;;;;;21.11;91.73;101101.19;104748;1269;99767;-78
2023/08/18 00:53:22;;;;;;;3.10;2.70;;;;;;;21.16;91.35;101100.05;104751;1274;98960;-78
2023/08/18 00:56:09;;;;;;;5.60;3.20;;;;;;;21.14;91.32;101108.29;104562;1276;98493;-78
2023/08/18 00:58:54;;;;;;;4.70;4.00;;;;;;;21.11;91.39;101123.60;104751;1271;98507;-79
2023/08/18 01:01:42;;;;;;;7.40;3.80;;;;;;;21.11;91.58;101138.95;104632;1274;101434;-77
2023/08/18 01:04:29;;;;;;;4.60;2.90;;;;;;;21.11;91.49;101153.61;104740;1270;99129;-79
2023/08/18 01:07:15;;;;;;;3.70;3.40;;;;;;;21.10;91.49;101145.89;104827;1273;99219;-78
2023/08/18 01:10:00;;;;;;;9.20;5.20;;;;;;;21.06;91.97;101150.84;104706;1270;100206;-78
2023/08/18 01:13:10;;;;;;;10.90;6.70;;;;;;;21.03;93.24;101169.66;104802;1270;98525;-79
2023/08/18 01:15:59;;;;;;;6.70;5.50;;;;;;;20.93;94.37;101186.91;104773;1273;110018;-79
2023/08/18 01:18:44;;;;;;;6.40;5.20;;;;;;;20.88;94.71;101198.48;104726;1270;99156;-79
2023/08/18 01:21:30;;;;;;;7.10;5.10;;;;;;;20.86;94.97;101197.52;104836;1273;97906;-79
2023/08/18 01:24:15;;;;;;;8.10;5.30;;;;;;;20.85;95.27;101200.97;104715;1273;98048;-79
2023/08/18 01:27:00;;;;;;;8.90;6.30;;;;;;;20.79;95.60;101202.46;104736;1272;97991;-78
2023/08/18 02:01:34;;;;;;;11.60;6.40;;;;;;;20.27;100.00;101162.80;102545;1289;635395;-76
2023/08/18 02:04:19;;;;;;;8.10;6.50;;;;;;;20.16;100.00;101131.95;104627;1269;95899;-75
2023/08/18 02:07:05;;;;;;;9.90;6.10;;;;;;;20.05;100.00;101117.11;104641;1269;95859;-76
2023/08/18 02:09:50;;;;;;;9.20;6.10;;;;;;;19.99;100.00;101105.80;104710;1269;98626;-78
2023/08/18 02:12:36;;;;;;;8.70;6.20;;;;;;;19.98;100.00;101096.92;104748;1266;99151;-77
2023/08/18 02:15:21;;;;;;;7.50;6.50;;;;;;;20.04;100.00;101089.70;104593;1269;139988;-77
2023/08/18 02:18:06;;;;;;;6.60;5.90;;;;;;;20.13;100.00;101088.11;104782;1267;96072;-76
2023/08/18 02:20:58;;;;;;;7.90;5.90;;;;;;;20.23;100.00;101100.95;104666;1263;95882;-78
2023/08/18 02:23:44;;;;;;;6.70;5.90;;;;;;;20.32;100.00;101108.71;104767;1266;98125;-78
2023/08/18 02:26:29;;;;;;;6.10;5.50;;;;;;;20.38;100.00;101101.63;104881;1263;99859;-76
2023/08/18 02:29:15;;;;;;;6.60;5.90;;;;;;;20.44;100.00;101096.80;104835;1266;98979;-78
2023/08/18 02:32:00;;;;;;;6.70;6.10;;;;;;;20.48;100.00;101096.56;104951;1263;95928;-78
2023/08/18 02:34:46;;;;;;;6.00;5.40;;;;;;;20.52;100.00;101097.09;104857;1266;95879;-79
2023/08/18 02:37:33;;;;;;;7.20;5.40;;;;;;;20.57;100.00;101090.88;104722;1263;98630;-79
2023/08/18 02:40:18;;;;;;;7.80;5.50;;;;;;;20.54;100.00;101079.50;104820;1263;100585;-78
2023/08/18 02:43:04;;;;;;;5.70;5.20;;;;;;;20.44;100.00;101065.13;104956;1264;97719;-78
2023/08/18 02:45:57;;;;;;;5.60;5.00;;;;;;;20.38;100.00;101063.80;104995;1266;95867;-78
2023/08/18 02:48:43;;;;;;;9.30;5.50;;;;;;;20.32;100.00;101072.70;104859;1264;95943;-79
2023/08/18 02:51:28;;;;;;;7.40;5.90;;;;;;;20.26;100.00;101079.52;104820;1266;98640;-78
2023/08/18 02:54:14;;;;;;;7.20;5.60;;;;;;;20.18;100.00;101074.58;105038;1263;99233;-77
2023/08/18 02:56:59;;;;;;;6.50;5.50;;;;;;;20.11;100.00;101069.64;104986;1266;97680;-78
2023/08/18 02:59:45;;;;;;;7.40;5.50;;;;;;;20.07;100.00;101068.39;104940;1263;96664;-78
2023/08/18 03:02:30;;;;;;;9.30;6.60;;;;;;;20.06;100.00;101068.71;105065;1266;95862;-79
2023/08/18 03:05:16;;;;;;;6.30;5.80;;;;;;;20.07;100.00;101069.23;105733;1256;99380;-77
2023/08/18 03:08:02;;;;;;;6.10;5.50;;;;;;;20.07;100.00;101067.46;105639;1251;99127;-80
2023/08/18 03:11:00;;;;;;;7.70;6.20;;;;;;;20.05;100.00;101069.22;105693;1257;99000;-77
2023/08/18 03:13:46;;;;;;;6.10;5.50;;;;;;;20.03;100.00;101071.35;105591;1256;97292;-77
2023/08/18 03:16:31;;;;;;;6.10;5.60;;;;;;;20.02;100.00;101067.52;105611;1251;95854;-78
2023/08/18 03:19:18;;;;;;;6.40;5.60;;;;;;;20.01;100.00;101061.97;105551;1252;98653;-78
2023/08/18 03:22:03;;;;;;;6.10;5.50;;;;;;;20.00;100.00;101057.27;105612;1256;100615;-77
2023/08/18 03:24:48;;;;;;;6.70;5.20;;;;;;;19.98;100.00;101054.56;105184;1261;97703;-78
2023/08/18 03:27:34;;;;;;;8.40;5.50;;;;;;;19.97;100.00;101046.09;105297;1260;95959;-76
2023/08/18 03:30:19;;;;;;;6.40;5.40;;;;;;;19.94;100.00;101032.05;105295;1254;95865;-77
2023/08/18 03:33:06;;;;;;;6.40;5.90;;;;;;;19.90;100.00;101023.64;105215;1256;100094;-77
2023/08/18 03:35:52;;;;;;;6.50;5.90;;;;;;;19.86;100.00;101013.77;105119;1259;99780;-77
2023/08/18 03:38:37;;;;;;;6.70;6.00;;;;;;;19.84;100.00;101007.41;105214;1259;97759;-78
2023/08/18 03:41:23;;;;;;;7.20;5.80;;;;;;;19.83;100.00;101008.08;105158;1257;95957;-78
2023/08/18 03:44:08;;;;;;;7.40;6.10;;;;;;;19.82;100.00;101008.44;105320;1254;95835;-76
2023/08/18 03:46:53;;;;;;;7.20;6.00;;;;;;;19.82;100.00;101014.42;105412;1254;99939;-76
2023/08/18 03:49:39;;;;;;;8.40;6.10;;;;;;;19.82;100.00;101019.44;105320;1254;99084;-77
2023/08/18 03:52:24;;;;;;;7.50;6.20;;;;;;;19.82;100.00;101015.84;105299;1259;97711;-77
2023/08/18 03:55:10;;;;;;;7.10;6.30;;;;;;;19.83;100.00;101015.24;105299;1260;95902;-77
2023/08/18 03:57:56;;;;;;;6.80;6.10;;;;;;;19.88;100.00;101019.09;105289;1259;97189;-77
2023/08/18 04:00:42;;;;;;;10.10;7.10;;;;;;;19.94;100.00;101025.48;105326;1254;98683;-78
2023/08/18 04:03:27;;;;;;;7.00;6.20;;;;;;;19.99;100.00;101025.06;105358;1259;99129;-77
2023/08/18 04:06:14;;;;;;;9.20;6.80;;;;;;;20.04;100.00;101017.81;105172;1258;97782;-76
2023/08/18 04:09:13;;;;;;;7.20;6.50;;;;;;;20.08;100.00;101012.67;105272;1256;95902;-77
2023/08/18 04:12:00;;;;;;;7.90;6.80;;;;;;;20.13;100.00;101011.95;105277;1256;96929;-78
2023/08/18 04:14:45;;;;;;;8.20;6.90;;;;;;;20.18;100.00;101010.78;105206;1259;99875;-78
2023/08/18 04:17:30;;;;;;;7.60;6.50;;;;;;;20.23;100.00;101010.58;105310;1256;100279;-78
2023/08/18 04:20:17;;;;;;;8.00;7.20;;;;;;;20.27;100.00;100995.91;105240;1259;97740;-77
2023/08/18 04:23:03;;;;;;;7.70;7.00;;;;;;;20.29;100.00;100997.27;105504;1259;95944;-78
2023/08/18 04:25:49;;;;;;;8.10;7.30;;;;;;;20.27;100.00;100991.73;105343;1255;95798;-77
2023/08/18 04:28:34;;;;;;;9.40;7.40;;;;;;;20.27;100.00;100990.44;105308;1259;98660;-78
2023/08/18 04:31:20;;;;;;;8.00;7.20;;;;;;;20.28;100.00;100993.77;105302;1259;99148;-78
2023/08/18 04:34:11;;;;;;;8.10;7.10;;;;;;;20.30;100.00;100993.55;105142;1259;97777;-77
2023/08/18 04:36:56;;;;;;;7.30;6.60;;;;;;;20.33;100.00;100984.02;105185;1259;95902;-76
2023/08/18 04:39:42;;;;;;;7.30;6.50;;;;;;;20.33;100.00;100971.98;105297;1256;95964;-77
2023/08/18 04:42:28;;;;;;;9.60;6.70;;;;;;;20.30;100.00;100958.98;105254;1256;99937;-77
2023/08/18 04:45:13;;;;;;;6.90;6.20;;;;;;;20.30;100.00;100959.57;105182;1261;99160;-78
2023/08/18 04:47:59;;;;;;;7.30;6.40;;;;;;;20.30;100.00;100961.86;105179;1257;97917;-78
2023/08/18 04:50:45;;;;;;;9.00;6.40;;;;;;;20.32;100.00;100960.82;105277;1259;95897;-78
2023/08/18 04:53:30;;;;;;;15.10;7.00;;;;;;;20.33;100.00;100952.58;105165;1261;96093;-78
2023/08/18 04:56:15;;;;;;;8.20;7.20;;;;;;;20.35;100.00;100947.02;105216;1257;98675;-77
2023/08/18 04:59:01;;;;;;;8.20;7.00;;;;;;;20.39;100.00;100948.83;105380;1259;99663;-78
2023/08/18 05:01:46;;;;;;;9.70;7.40;;;;;;;20.43;100.00;100951.96;105148;1261;98993;-78
2023/08/18 05:04:33;;;;;;;8.10;7.10;;;;;;;20.48;100.00;100954.02;105172;1256;95846;-78
2023/08/18 05:07:20;;;;;;;7.10;6.50;;;;;;;20.55;100.00;100956.42;105311;1255;95887;-78
2023/08/18 05:10:07;;;;;;;8.80;7.40;;;;;;;20.61;100.00;100960.98;105793;1256;98800;-78
2023/08/18 05:12:52;;;;;;;7.30;6.60;;;;;;;20.70;100.00;100973.48;105135;1260;99053;-77
2023/08/18 05:15:38;;;;;;;7.90;7.20;;;;;;;20.80;100.00;100972.58;105140;1259;98368;-77
2023/08/18 05:18:23;;;;;;;8.30;7.20;;;;;;;20.87;100.00;100965.45;105221;1259;96195;-78
2023/08/18 05:21:09;;;;;;;8.00;7.20;;;;;;;20.91;100.00;100949.80;105521;1259;95848;-77
2023/08/18 05:23:54;;;;;;;7.90;7.10;;;;;;;20.94;100.00;100944.08;105191;1257;98645;-78
2023/08/18 05:26:40;;;;;;;10.30;7.50;;;;;;;20.95;100.00;100939.15;105189;1256;99094;-79
2023/08/18 05:29:25;;;;;;;8.00;7.00;;;;;;;20.94;100.00;100931.70;105195;1259;99120;-77
2023/08/18 05:32:11;;;;;;;10.00;7.80;;;;;;;20.93;100.00;100917.58;105161;1261;95983;-78
2023/08/18 05:34:56;;;;;;;11.20;8.00;;;;;;;20.92;100.00;100921.05;105800;1259;96149;-82
2023/08/18 05:37:42;;;;;;;8.80;7.70;;;;;;;20.96;100.00;100926.79;105793;1257;98685;-81
2023/08/18 05:40:27;;;;;;;9.90;7.60;;;;;;;21.09;100.00;100909.91;106394;1259;99131;-80
2023/08/18 05:43:14;;;;;;;10.70;8.00;;;;;;;21.20;100.00;100921.01;106294;1256;98335;-81
2023/08/18 05:46:00;;;;;;;9.50;8.40;;;;;;;21.34;100.00;100929.02;106280;1256;95959;-80
2023/08/18 05:48:45;;;;;;;12.00;10.70;;;;;;;21.50;100.00;100937.81;106369;1257;95802;-82
2023/08/18 05:51:30;;;;;;;13.20;10.00;;;;;;;21.67;100.00;100939.05;106445;1257;98721;-82
2023/08/18 05:54:16;;;;;;;9.80;8.30;;;;;;;21.83;100.00;100941.15;106308;1259;100407;-81
2023/08/18 05:57:02;;;;;;;10.90;8.60;;;;;;;21.98;100.00;100941.47;106437;1259;97796;-81
2023/08/18 05:59:47;;;;;;;10.90;8.50;;;;;;;22.12;100.00;100940.55;106415;1256;95811;-82
2023/08/18 06:02:33;;;;;;;8.90;8.00;;;;;;;22.27;100.00;100936.05;106322;1256;95872;-81
2023/08/18 06:05:18;;;;;;;8.40;7.60;;;;;;;22.41;100.00;100935.21;106410;1259;98619;-82
2023/08/18 06:08:04;;;;;;;8.90;7.70;;;;;;;22.51;100.00;100940.57;106296;1259;100033;-78
2023/08/18 06:10:50;;;;;;;8.60;7.60;;;;;;;22.59;100.00;100941.71;105594;1256;97704;-79
2023/08/18 06:13:36;;;;;;;8.70;7.70;;;;;;;22.68;100.00;100941.28;105554;1257;95897;-79
2023/08/18 06:16:21;;;;;;;8.90;7.30;;;;;;;22.78;100.00;100942.52;105582;1256;96403;-78
2023/08/18 06:19:08;;;;;;;8.60;7.90;;;;;;;22.89;100.00;100942.07;105642;1259;98679;-78
2023/08/18 06:21:53;;;;;;;8.40;7.50;;;;;;;22.98;100.00;100939.16;106779;1255;99104;-79
2023/08/18 06:24:39;;;;;;;8.20;7.50;;;;;;;23.08;100.00;100935.95;105600;1256;97681;-77
2023/08/18 06:27:25;;;;;;;8.30;7.50;;;;;;;23.17;100.00;100940.40;105252;1256;95910;-76
2023/08/18 06:30:11;;;;;;;12.70;8.90;;;;;;;23.26;100.00;100941.08;105143;1256;96031;-78
2023/08/18 06:32:57;;;;;;;10.40;8.00;;;;;;;23.35;100.00;100939.77;105368;1259;108421;-79
2023/08/18 06:35:42;;;;;;;8.40;7.70;;;;;;;23.42;100.00;100944.13;105195;1264;100151;-77
2023/08/18 06:38:28;;;;;;;9.20;8.30;;;;;;;23.48;100.00;100944.88;105152;1256;97770;-78
2023/08/18 06:41:14;;;;;;;9.20;8.20;;;;;;;23.54;100.00;100944.11;105206;1256;97225;-78
2023/08/18 06:43:59;;;;;;;10.60;9.40;;;;;;;23.63;100.00;100943.34;105316;1256;97004;-78
2023/08/18 06:46:46;;;;;;;9.60;8.20;;;;;;;23.71;100.00;100943.44;105295;1259;101232;-77
2023/08/18 06:49:32;;;;;;;8.90;8.00;;;;;;;23.79;100.00;100944.63;105361;1256;99131;-77
2023/08/18 06:52:18;;;;;;;10.00;8.20;;;;;;;23.86;100.00;100946.36;105238;1259;98970;-77
2023/08/18 06:55:03;;;;;;;7.80;7.10;;;;;;;23.94;100.00;100943.30;105231;1259;96606;-76
2023/08/18 06:57:49;;;;;;;7.80;7.00;;;;;;;24.01;100.00;100941.58;105224;1257;96635;-78
2023/08/18 07:00:35;;;;;;;8.70;6.00;;;;;;;24.07;100.00;100939.92;105229;1259;100793;-76
2023/08/18 07:03:20;;;;;;;6.80;6.10;;;;;;;24.14;100.00;100942.66;105208;1257;99122;-77
2023/08/18 07:06:08;;;;;;;7.10;5.80;;;;;;;24.21;100.00;100944.81;105199;1256;97732;-78
2023/08/18 07:08:54;;;;;;;7.10;5.70;;;;;;;24.27;100.00;100947.95;105231;1256;96612;-78
2023/08/18 07:11:40;;;;;;;5.80;5.20;;;;;;;24.31;100.00;100944.25;105173;1259;97993;-78
2023/08/18 07:14:25;;;;;;;5.70;5.20;;;;;;;24.35;100.00;100943.83;105209;1255;99981;-77
2023/08/18 07:17:11;;;;;;;6.40;5.80;;;;;;;24.40;100.00;100947.02;105191;1259;100358;-78
2023/08/18 07:19:57;;;;;;;6.70;5.70;;;;;;;24.45;100.00;100947.56;105136;1259;97721;-78
2023/08/18 07:22:42;;;;;;;6.00;5.50;;;;;;;24.51;100.00;100943.88;105352;1257;96568;-79
2023/08/18 07:25:28;;;;;;;7.50;6.00;;;;;;;24.57;100.00;100944.21;105363;1257;96608;-78
2023/08/18 07:28:13;;;;;;;6.30;5.80;;;;;;;24.61;100.00;100948.10;105427;1254;100012;-78
2023/08/18 07:31:03;;;;;;;7.70;6.60;;;;;;;24.67;100.00;100946.52;105492;1257;99224;-76
2023/08/18 07:33:49;;;;;;;6.60;6.00;;;;;;;24.74;99.97;100947.94;105345;1255;100189;-77
2023/08/18 07:36:35;;;;;;;6.60;5.90;;;;;;;24.80;99.87;100952.29;105424;1257;97305;-77
2023/08/18 07:39:22;;;;;;;8.60;5.70;;;;;;;24.85;99.64;100952.57;105411;1257;97299;-79
2023/08/18 07:42:08;;;;;;;10.50;6.00;;;;;;;24.91;99.57;100954.07;105376;1256;100020;-77
2023/08/18 07:44:54;;;;;;;6.50;5.80;;;;;;;24.98;99.04;100955.98;105337;1255;99132;-78
2023/08/18 07:47:42;;;;;;;6.20;5.40;;;;;;;25.06;98.79;100960.70;105277;1259;97746;-78
2023/08/18 07:50:28;;;;;;;5.20;4.80;;;;;;;25.14;97.64;100965.25;105375;1257;96530;-78
2023/08/18 07:53:13;;;;;;;5.40;4.90;;;;;;;25.22;97.28;100961.80;105370;1254;96613;-78
2023/08/18 07:55:59;;;;;;;7.00;4.80;;;;;;;25.30;95.80;100965.36;105282;1259;100102;-77
2023/08/18 07:58:44;;;;;;;5.10;4.60;;;;;;;25.36;94.81;100969.85;105333;1268;100326;-78
2023/08/18 08:01:30;;;;;;;5.30;4.80;;;;;;;25.41;93.94;100974.43;105391;1257;99630;-77
2023/08/18 08:04:15;;;;;;;5.70;4.30;;;;;;;25.45;92.56;100974.66;105703;1259;96400;-78
2023/08/18 08:07:04;;;;;;;5.20;4.60;;;;;;;25.49;92.11;100979.31;105376;1254;97045;-78
2023/08/18 08:09:52;;;;;;;6.40;5.00;;;;;;;25.54;91.82;100980.58;105456;1257;99966;-77
2023/08/18 08:12:38;;;;;;;8.10;5.10;;;;;;;25.53;91.38;100980.08;105395;1259;99077;-79
2023/08/18 08:15:23;;;;;;;5.30;4.80;;;;;;;25.56;90.95;100984.68;105406;1257;98946;-79
2023/08/18 08:18:09;;;;;;;6.90;4.80;;;;;;;25.62;91.21;100986.81;105384;1254;96520;-76
2023/08/18 08:20:55;;;;;;;5.50;5.00;;;;;;;25.72;91.65;100987.13;105386;1255;97193;-78
2023/08/18 08:23:40;;;;;;;6.80;6.20;;;;;;;25.81;91.54;100989.26;105626;1255;100916;-78
2023/08/18 08:26:26;;;;;;;6.50;5.80;;;;;;;25.89;91.54;100984.34;105410;1257;99114;-78
2023/08/18 08:29:11;;;;;;;7.80;6.60;;;;;;;25.95;91.22;100985.70;105449;1260;98957;-78
2023/08/18 08:31:57;;;;;;;8.50;5.80;;;;;;;26.02;91.18;100988.48;105399;1257;97782;-79
2023/08/18 08:34:49;;;;;;;6.40;5.80;;;;;;;26.09;91.15;100989.97;105705;1257;98024;-79
2023/08/18 08:37:34;;;;;;;6.30;5.60;;;;;;;26.16;91.51;100987.30;105726;1257;100018;-79
2023/08/18 08:40:20;;;;;;;5.70;5.20;;;;;;;26.24;90.77;100992.94;105744;1257;100349;-78
2023/08/18 08:43:06;;;;;;;7.00;6.10;;;;;;;26.24;89.60;100994.27;105576;1270;107062;-79
2023/08/18 08:45:52;;;;;;;7.20;6.60;;;;;;;26.25;89.39;100998.48;105618;1257;96795;-79
2023/08/18 08:48:46;;;;;;;7.40;6.40;;;;;;;26.22;88.96;100997.06;106021;1257;96715;-80
2023/08/18 08:51:37;;;;;;;9.00;6.30;;;;;;;26.21;88.87;100996.63;105780;1255;101398;-79
2023/08/18 08:54:28;;;;;;;8.20;6.60;;;;;;;26.26;89.03;100996.83;105824;1259;99669;-79
2023/08/18 08:57:17;;;;;;;6.70;6.10;;;;;;;26.36;90.03;100997.02;105628;1260;99095;-78
2023/08/18 09:00:04;;;;;;;7.50;6.50;;;;;;;26.47;89.79;100998.17;105398;1257;96622;-78
2023/08/18 09:02:49;;;;;;;6.70;6.10;;;;;;;26.55;89.00;100994.17;105474;1257;96632;-78
2023/08/18 09:05:35;;;;;;;6.50;5.50;;;;;;;26.63;88.60;100994.63;105471;1259;101888;-77
2023/08/18 09:08:21;;;;;;;6.60;5.90;;;;;;;26.72;87.53;100997.13;105442;1260;100313;-78
2023/08/18 09:11:08;;;;;;;6.20;5.60;;;;;;;26.80;85.58;100993.19;105370;1260;97713;-79
2023/08/18 09:13:53;;;;;;;12.00;6.10;;;;;;;26.85;85.04;100987.38;105378;1260;97282;-78
2023/08/18 09:16:39;;;;;;;6.40;5.50;;;;;;;26.95;85.40;100990.11;105385;1259;97138;-76
2023/08/18 09:23:44;;;;;;;7.70;6.80;;;;;;;27.14;83.87;100982.60;102286;1292;636459;-77
2023/08/18 09:26:30;;;;;;;7.50;5.90;;;;;;;27.22;83.88;100980.00;104525;1269;95951;-79
2023/08/18 09:29:15;;;;;;;6.80;6.00;;;;;;;27.27;83.00;100983.15;104635;1269;95936;-80
2023/08/18 09:32:02;;;;;;;6.30;5.70;;;;;;;27.32;81.89;100980.09;104556;1266;97453;-78
2023/08/18 09:34:48;;;;;;;7.10;6.40;;;;;;;27.36;82.36;100973.36;104546;1267;107842;-78
2023/08/18 09:37:34;;;;;;;7.90;5.80;;;;;;;27.43;82.38;100966.42;104370;1267;312956;-78
2023/08/18 09:40:19;;;;;;;6.50;5.70;;;;;;;27.50;81.50;100961.92;104619;1265;96328;-79
2023/08/18 09:43:05;;;;;;;8.30;6.00;;;;;;;27.56;80.94;100963.73;104701;1267;95886;-78
2023/08/18 09:45:57;;;;;;;6.90;6.10;;;;;;;27.64;81.47;100961.55;104729;1263;98567;-78
2023/08/18 09:48:46;;;;;;;11.60;6.40;;;;;;;27.72;80.18;100956.56;104815;1265;99064;-80
2023/08/18 09:51:32;;;;;;;7.00;6.20;;;;;;;27.78;80.52;100955.23;104660;1264;97743;-79
2023/08/18 09:54:19;;;;;;;7.00;6.20;;;;;;;27.81;80.49;100954.71;104654;1269;95951;-78
2023/08/18 09:57:07;;;;;;;8.30;6.10;;;;;;;27.85;80.54;100955.83;104680;1265;95906;-78
2023/08/18 09:59:55;;;;;;;7.90;6.50;;;;;;;27.89;79.87;100951.59;104631;1269;98723;-78
2023/08/18 10:02:44;;;;;;;7.70;6.00;;;;;;;27.91;78.92;100955.30;105879;1268;99103;-78
2023/08/18 10:05:31;;;;;;;8.20;6.30;;;;;;;28.00;78.76;100954.25;104746;1267;99019;-77
2023/08/18 10:08:17;;;;;;;7.20;5.90;;;;;;;28.11;78.23;100947.99;104706;1267;95908;-78
2023/08/18 10:11:03;;;;;;;9.70;5.90;;;;;;;28.22;77.32;100949.05;104627;1271;95920;-78
2023/08/18 10:13:50;;;;;;;6.90;6.20;;;;;;;28.33;75.49;100946.88;104781;1269;98679;-78
2023/08/18 10:16:37;;;;;;;6.50;5.80;;;;;;;28.44;75.78;100949.09;104720;1267;100365;-77
2023/08/18 10:20:08;;;;;;;7.10;5.40;;;;;;;28.54;74.90;100952.33;104611;1264;97703;-77
2023/08/18 10:22:54;;;;;;;;;;;;;;;28.62;73.42;100950.47;104644;1269;95929;-77
2023/08/18 10:25:39;;;;;;;6.60;5.40;;;;;;;28.68;72.65;100947.96;104513;1267;95996;-79
2023/08/18 10:28:29;;;;;;;7.00;5.40;;;;;;;28.75;72.13;100945.37;104419;1268;99913;-79
2023/08/18 10:31:14;;;;;;;11.30;6.40;;;;;;;28.85;72.99;100947.48;104499;1272;100434;-78
2023/08/18 10:34:00;;;;;;;11.20;6.20;;;;;;;28.91;71.88;100949.82;104452;1267;99005;-78
2023/08/18 10:36:45;;;;;;;6.30;5.60;;;;;;;28.90;71.15;100951.91;104372;1268;95879;-77
2023/08/18 10:39:36;;;;;;;6.40;5.80;;;;;;;28.91;70.07;100950.92;104450;1272;97158;-78
2023/08/18 10:42:22;;;;;;;6.20;5.70;;;;;;;28.98;70.52;100949.65;104420;1271;100039;-78
2023/08/18 10:45:22;;;;;;;9.30;6.20;;;;;;;29.09;70.27;100948.80;104544;1271;100085;-77
2023/08/18 10:48:09;;;;;;;6.90;6.20;;;;;;;29.20;69.95;100948.27;104908;1259;98960;-77
2023/08/18 10:50:55;;;;;;;6.60;6.00;;;;;;;29.29;69.33;100946.14;105035;1264;95917;-78
2023/08/18 10:53:41;;;;;;;6.90;6.00;;;;;;;29.36;69.61;100938.50;105075;1262;95857;-80
2023/08/18 10:56:27;;;;;;;7.50;6.30;;;;;;;29.45;69.79;100936.61;104993;1262;99723;-80
2023/08/18 10:59:13;;;;;;;9.00;6.20;;;;;;;29.54;68.92;100938.27;105141;1262;100381;-79
2023/08/18 11:01:59;;;;;;;8.10;6.10;;;;;;;29.60;68.70;100935.79;105063;1262;97708;-77
2023/08/18 11:04:44;;;;;;;7.10;6.40;;;;;;;29.67;68.45;100938.80;104869;1263;97230;-77
2023/08/18 11:07:31;;;;;;;6.70;5.90;;;;;;;29.74;68.19;100938.18;104980;1262;95948;-77
2023/08/18 11:10:21;;;;;;;8.80;5.70;;;;;;;29.84;68.28;100937.84;104963;1258;98698;-79
2023/08/18 11:13:10;;;;;;;;;;;;;;;29.96;68.13;100941.73;104897;1260;99233;-78
2023/08/18 11:15:57;;;;;;;8.50;5.90;;;;;;;30.06;67.74;100936.52;104893;1261;98441;-78
2023/08/18 11:18:42;;;;;;;6.90;5.80;;;;;;;30.12;66.75;100938.59;105017;1258;97330;-78
2023/08/18 11:21:28;;;;;;;5.60;5.10;;;;;;;30.22;66.71;100936.49;105133;1258;95974;-79
2023/08/18 11:24:13;;;;;;;7.00;5.60;;;;;;;30.33;65.08;100932.64;105097;1262;98632;-78
2023/08/18 11:26:59;;;;;;;8.10;6.30;;;;;;;30.37;63.54;100932.88;104984;1259;99117;-78
2023/08/18 11:29:44;;;;;;;6.70;6.00;;;;;;;30.41;63.87;100929.08;105066;1262;97789;-79
2023/08/18 11:32:30;;;;;;;7.60;5.60;;;;;;;30.50;63.49;100925.30;105113;1262;95971;-77
2023/08/18 11:35:18;;;;;;;6.70;6.00;;;;;;;30.59;64.48;100927.91;105008;1267;97211;-77
2023/08/18 11:38:04;;;;;;;7.60;6.20;;;;;;;30.63;64.08;100927.14;104953;1259;99994;-78
2023/08/18 11:40:50;;;;;;;8.60;6.10;;;;;;;30.69;63.15;100923.73;105153;1259;99068;-77
2023/08/18 11:43:36;;;;;;;7.70;6.40;;;;;;;30.73;62.20;100921.91;104915;1260;97754;-77
2023/08/18 11:46:21;;;;;;;7.70;6.80;;;;;;;30.75;62.62;100919.63;105032;1262;96270;-79
2023/08/18 11:49:18;;;;;;;10.40;6.90;;;;;;;30.76;62.15;100910.06;105088;1263;95975;-78
2023/08/18 11:52:05;;;;;;;13.10;7.10;;;;;;;30.80;62.79;100909.48;104980;1261;99917;-78
2023/08/18 11:54:56;;;;;;;10.80;8.80;;;;;;;30.82;61.88;100902.30;104956;1262;99417;-77
2023/08/18 11:57:44;;;;;;;8.30;7.10;;;;;;;30.85;61.89;100901.63;105043;1261;98125;-78
2023/08/18 12:00:36;;;;;;;10.20;7.70;;;;;;;30.90;61.74;100897.39;104975;1262;95986;-78
2023/08/18 12:03:26;;;;;;;8.40;7.10;;;;;;;30.93;61.49;100892.88;105099;1262;97237;-78
2023/08/18 12:06:22;;;;;;;9.60;8.00;;;;;;;30.94;62.08;100886.30;104988;1258;99997;-78
2023/08/18 12:09:12;;;;;;;8.10;7.20;;;;;;;30.96;60.99;100882.67;105348;1258;99087;-78
2023/08/18 12:11:57;;;;;;;8.50;7.60;;;;;;;30.88;60.13;100880.77;105020;1258;97758;-79
2023/08/18 12:14:43;;;;;;;11.50;7.90;;;;;;;30.80;59.68;100877.62;104980;1264;95891;-78
2023/08/18 12:17:30;;;;;;;12.10;8.10;;;;;;;30.83;60.76;100874.82;105014;1262;95909;-78
2023/08/18 12:20:19;;;;;;;9.00;7.30;;;;;;;30.92;61.01;100876.55;104986;1262;98680;-78
2023/08/18 12:23:05;;;;;;;9.00;7.40;;;;;;;31.05;60.03;100877.23;105197;1262;99132;-78
2023/08/18 12:25:50;;;;;;;12.90;7.00;;;;;;;31.12;60.14;100878.97;104931;1261;97832;-77
2023/08/18 12:28:36;;;;;;;13.60;7.80;;;;;;;31.13;59.08;100875.91;105012;1258;95877;-78
2023/08/18 12:31:24;;;;;;;12.90;7.70;;;;;;;31.13;59.14;100877.23;104971;1259;95895;-78
2023/08/18 12:34:09;;;;;;;10.50;7.30;;;;;;;31.16;58.65;100877.66;105008;1264;99926;-76
2023/08/18 12:36:58;;;;;;;11.20;7.70;;;;;;;31.16;58.31;100874.66;105091;1263;99072;-77
2023/08/18 12:39:45;;;;;;;8.30;7.30;;;;;;;31.18;57.28;100875.00;105039;1266;97721;-78
2023/08/18 12:42:30;;;;;;;11.40;7.60;;;;;;;31.22;57.34;100871.18;105024;1259;95831;-78
2023/08/18 12:45:16;;;;;;;8.80;7.30;;;;;;;31.34;57.13;100868.21;104975;1264;95952;-79
2023/08/18 12:48:02;;;;;;;15.40;7.00;;;;;;;31.34;56.51;100867.14;105141;1274;99111;-79
2023/08/18 12:50:48;;;;;;;13.90;7.80;;;;;;;31.27;56.98;100870.34;104991;1260;100121;-80
2023/08/18 12:53:33;;;;;;;10.30;7.80;;;;;;;31.18;57.04;100875.27;105105;1262;97742;-79
2023/08/18 12:56:18;;;;;;;11.50;7.30;;;;;;;31.14;56.74;100878.65;105086;1262;95818;-78
2023/08/18 12:59:04;;;;;;;11.40;7.20;;;;;;;31.14;56.68;100870.72;105012;1260;96284;-78
2023/08/18 13:01:51;;;;;;;10.00;7.00;;;;;;;31.12;56.16;100870.26;104975;1258;98659;-79
2023/08/18 13:04:36;;;;;;;9.60;7.20;;;;;;;31.06;56.08;100873.50;105068;1260;99328;-78
2023/08/18 13:07:22;;;;;;;8.50;6.90;;;;;;;31.06;56.43;100876.77;105001;1259;97697;-78
2023/08/18 13:10:08;;;;;;;7.80;6.60;;;;;;;31.14;56.77;100875.89;104998;1258;95892;-79
2023/08/18 13:12:54;;;;;;;8.50;6.80;;;;;;;31.22;56.87;100866.42;105079;1259;95466;-78
2023/08/18 13:15:39;;;;;;;11.70;7.30;;;;;;;31.29;56.54;100868.91;105052;1259;100006;-77